METAR AND TAF INFORMATION
METAR FOR HETR
ADDS - METARS form results

(1728 UTC 18 January 2018)
Data provider http://aviationweather.gov/adds/metars/
 
METAR text: HETR 181700Z 30006KT CAVOK 19/06 Q1013
Conditions at: HETR (EL TOR , EG) observed 1700 UTC 18 January 2018
Temperature: 19.0°C (66°F)
Dewpoint: 6.0°C (43°F) [RH = 43%]
Pressure (altimeter): 29.91 inches Hg (1013.0 mb)
Winds: from the WNW (300 degrees) at 7 MPH (6 knots; 3.1 m/s)
Visibility: 6 or more miles (10+ km)
Ceiling: ceiling and visibility are OK
Clouds: unknown
Weather: no significant weather observed at this time

Forecast for: HETR (EL TOR , EG)
Text: TAF HETR 181700Z 1818/1924 30015KT CAVOK
Forecast period: 1800 UTC 18 January 2018 to 0000 UTC 20 January 2018
Forecast type: FROM: standard forecast or significant change
Winds: from the WNW (300 degrees) at 17 MPH (15 knots; 7.8 m/s)
Visibility: 6 or more miles (10+ km)
Clouds: not forecast
Weather: NSW  (no significant weather)

 AIRPORT MAP

 RUNWAY INFORMATION
Runway 10 Runway length 9843 ft Runway width 148 ft
Runway elevation 19 ft Runway displaced threshold 0 ft Runway heading 104
Runway 28 Runway length 9843 ft Runway width 148 ft
Runway elevation 115 ft Runway displaced threshold 0 ft Runway heading 284

 AIRPORT FREQUENCIES
Type GND Name GND Frequency 121.9 MHZ
Type RDO Name RDO Frequency 579 MHZ
Type TWR Name TWR Frequency 121.3 MHZ

 AIRPORT NEAR NAVIGATION AIDS



v2.6.1